Time;durP1;ratioP1;P1;durP2;ratioP2;P2;SDS_P1;SDS_P2;PMS_P1;PMS_P2;Temp;Humidity;BMP_temperature;BMP_pressure;BME280_temperature;BME280_humidity;BME280_pressure;Samples;Min_cycle;Max_cycle;Signal;HPM_P1;HPM_P2
2021/06/14 00:01:34;;;;;;;13.30;12.00;;;14.00;65.70;;;;;;5197738;28;20479;-70
2021/06/14 00:04:06;;;;;;;13.05;11.85;;;13.90;65.20;;;;;;5180997;28;20053;-71
2021/06/14 00:06:38;;;;;;;13.32;12.00;;;14.00;65.60;;;;;;5198537;28;20124;-71
2021/06/14 00:09:11;;;;;;;12.85;11.68;;;13.90;66.90;;;;;;5196592;28;20120;-71
2021/06/14 00:11:43;;;;;;;12.93;11.73;;;13.80;67.20;;;;;;5197386;28;20136;-71
2021/06/14 00:14:15;;;;;;;13.02;11.93;;;13.70;67.60;;;;;;5196712;28;20150;-72
2021/06/14 00:16:47;;;;;;;12.90;11.90;;;13.70;67.10;;;;;;5197502;28;20045;-72
2021/06/14 00:19:21;;;;;;;13.10;12.10;;;13.70;66.30;;;;;;5198591;28;20049;-71
2021/06/14 00:21:54;;;;;;;12.98;11.98;;;13.80;66.20;;;;;;5196674;28;20041;-71
2021/06/14 00:24:26;;;;;;;13.88;12.45;;;13.80;65.50;;;;;;5199044;28;20099;-71
2021/06/14 00:26:58;;;;;;;13.07;12.07;;;13.80;65.80;;;;;;5197919;28;20639;-73
2021/06/14 00:29:29;;;;;;;12.95;11.85;;;13.80;66.80;;;;;;5197360;28;20845;-72
2021/06/14 00:32:02;;;;;;;12.98;11.98;;;13.80;67.50;;;;;;5196925;28;20049;-71
2021/06/14 00:34:34;;;;;;;13.40;12.30;;;13.80;66.50;;;;;;5198923;28;20100;-71
2021/06/14 00:37:06;;;;;;;12.80;11.80;;;13.70;67.90;;;;;;5197410;28;20468;-71
2021/06/14 00:39:38;;;;;;;13.48;12.38;;;13.70;66.30;;;;;;5197382;28;20124;-71
2021/06/14 00:42:09;;;;;;;13.32;12.15;;;13.60;66.70;;;;;;5196151;28;20124;-70
2021/06/14 00:44:41;;;;;;;13.82;12.70;;;13.70;66.80;;;;;;5198951;28;20068;-72
2021/06/14 00:47:13;;;;;;;13.57;12.45;;;13.60;66.30;;;;;;5197552;28;20037;-71
2021/06/14 00:49:45;;;;;;;13.38;12.38;;;13.60;66.50;;;;;;5198630;28;20037;-70
2021/06/14 00:52:18;;;;;;;13.25;12.20;;;13.60;67.20;;;;;;5194350;28;20501;-70
2021/06/14 00:54:50;;;;;;;12.93;11.65;;;13.60;66.00;;;;;;5197788;28;20128;-70
2021/06/14 00:57:22;;;;;;;13.02;12.02;;;13.60;66.80;;;;;;5195788;28;20065;-70
2021/06/14 00:59:54;;;;;;;13.65;12.55;;;13.60;66.90;;;;;;5187422;28;20052;-70
2021/06/14 01:02:28;;;;;;;13.38;12.27;;;13.50;67.00;;;;;;5193948;28;20048;-71
2021/06/14 01:05:01;;;;;;;13.43;12.20;;;13.50;67.90;;;;;;5198836;28;20452;-70
2021/06/14 01:07:33;;;;;;;13.30;12.20;;;13.50;68.50;;;;;;5196280;28;20095;-69
2021/06/14 01:10:07;;;;;;;13.90;12.80;;;13.40;68.10;;;;;;5193783;28;20505;-69
2021/06/14 01:13:06;;;;;;;13.05;12.05;;;13.40;67.80;;;;;;5196192;28;20058;-70
2021/06/14 01:16:09;;;;;;;12.85;11.75;;;13.30;67.90;;;;;;5194790;28;20535;-70
2021/06/14 01:19:18;;;;;;;12.48;11.48;;;13.30;68.40;;;;;;5196108;28;20489;-70
2021/06/14 01:22:21;;;;;;;13.55;12.45;;;13.30;66.90;;;;;;5196075;28;20065;-69
2021/06/14 01:25:11;;;;;;;13.05;11.95;;;13.30;67.20;;;;;;5197647;28;20112;-70
2021/06/14 01:27:47;;;;;;;13.07;12.02;;;13.20;67.00;;;;;;5197140;28;20052;-70
2021/06/14 01:30:29;;;;;;;13.05;11.95;;;13.20;67.30;;;;;;5196379;28;20045;-71
2021/06/14 01:33:06;;;;;;;13.20;12.20;;;13.20;67.40;;;;;;5196254;28;20041;-71
2021/06/14 01:35:42;;;;;;;13.23;11.95;;;13.20;67.10;;;;;;5195229;28;20049;-70
2021/06/14 01:38:17;;;;;;;13.38;12.18;;;13.20;67.70;;;;;;5197027;28;20455;-70
2021/06/14 01:40:56;;;;;;;13.02;12.02;;;13.20;67.30;;;;;;5178086;28;20055;-71
2021/06/14 01:43:32;;;;;;;13.48;12.35;;;13.10;68.60;;;;;;5196376;28;20404;-71
2021/06/14 01:46:10;;;;;;;13.63;12.32;;;13.00;68.50;;;;;;5196360;28;20127;-70
2021/06/14 01:48:44;;;;;;;12.85;11.75;;;13.00;69.10;;;;;;5195958;28;20075;-72
2021/06/14 01:51:22;;;;;;;13.05;11.75;;;13.00;68.70;;;;;;5192508;28;20132;-71
2021/06/14 01:54:07;;;;;;;13.65;12.45;;;13.00;69.00;;;;;;5196192;28;20144;-71
2021/06/14 01:56:50;;;;;;;14.05;12.75;;;12.90;69.40;;;;;;5205753;28;20099;-71
2021/06/14 01:59:33;;;;;;;13.35;12.25;;;12.90;68.90;;;;;;5180578;28;20452;-71
2021/06/14 02:02:09;;;;;;;13.55;12.35;;;12.90;69.40;;;;;;5194288;28;20038;-70
2021/06/14 02:04:48;;;;;;;14.18;12.98;;;12.90;69.70;;;;;;5178161;28;20080;-71
2021/06/14 02:07:34;;;;;;;13.60;12.52;;;12.90;70.00;;;;;;5195758;28;20156;-70
2021/06/14 02:10:07;;;;;;;14.02;12.93;;;12.80;69.30;;;;;;5196355;28;20049;-71
2021/06/14 02:12:41;;;;;;;13.73;12.55;;;12.80;69.30;;;;;;5194453;28;20038;-70
2021/06/14 02:15:16;;;;;;;13.57;12.48;;;12.70;70.60;;;;;;5211740;28;20517;-70
2021/06/14 02:17:51;;;;;;;13.82;12.73;;;12.60;69.90;;;;;;5188982;28;20046;-71
2021/06/14 02:20:25;;;;;;;13.45;12.35;;;12.70;70.20;;;;;;5193159;28;20055;-70
2021/06/14 02:22:57;;;;;;;13.68;12.57;;;12.70;70.00;;;;;;5177760;28;20037;-70
2021/06/14 02:25:30;;;;;;;13.90;12.52;;;12.70;70.00;;;;;;5196364;28;20041;-70
2021/06/14 02:28:04;;;;;;;13.35;12.25;;;12.60;69.90;;;;;;5193558;28;20049;-69
2021/06/14 02:30:37;;;;;;;13.70;12.57;;;12.60;70.80;;;;;;5199609;28;20037;-71
2021/06/14 02:33:10;;;;;;;13.40;12.30;;;12.60;69.90;;;;;;5199421;28;20053;-72
2021/06/14 02:35:46;;;;;;;13.98;12.88;;;12.50;70.10;;;;;;5200306;28;20044;-72
2021/06/14 02:38:19;;;;;;;13.48;12.45;;;12.60;69.90;;;;;;5200445;28;20049;-71
2021/06/14 02:40:52;;;;;;;13.60;12.50;;;12.60;69.80;;;;;;5196809;28;20848;-71
2021/06/14 02:43:24;;;;;;;13.48;12.30;;;12.60;69.30;;;;;;5191574;28;20054;-72
2021/06/14 02:45:56;;;;;;;14.57;13.20;;;12.60;70.30;;;;;;5197931;28;20122;-71
2021/06/14 02:48:40;;;;;;;12.88;11.88;;;12.50;70.00;;;;;;5199402;28;20049;-70
2021/06/14 02:51:14;;;;;;;13.63;12.52;;;12.50;70.50;;;;;;5192602;28;20405;-71
2021/06/14 02:54:03;;;;;;;13.75;12.55;;;12.50;70.00;;;;;;5200747;28;20053;-71
2021/06/14 02:56:39;;;;;;;13.88;12.50;;;12.50;70.90;;;;;;5198634;28;20050;-71
2021/06/14 02:59:16;;;;;;;13.23;12.23;;;12.40;70.50;;;;;;5197488;28;20056;-71
2021/06/14 03:01:50;;;;;;;13.20;12.13;;;12.40;71.00;;;;;;5198012;28;20037;-71
2021/06/14 03:04:26;;;;;;;13.73;12.52;;;12.40;71.30;;;;;;5198750;28;20073;-70
2021/06/14 03:06:59;;;;;;;13.95;12.65;;;12.40;70.50;;;;;;5196205;28;20056;-72
2021/06/14 03:09:36;;;;;;;13.60;12.50;;;12.40;70.90;;;;;;5196086;28;20122;-71
2021/06/14 03:12:09;;;;;;;14.25;12.95;;;12.30;70.80;;;;;;5195681;28;20073;-70
2021/06/14 03:14:43;;;;;;;14.05;12.73;;;12.20;72.10;;;;;;5195927;28;20072;-71
2021/06/14 03:17:17;;;;;;;13.73;12.52;;;12.20;71.20;;;;;;5197053;28;20056;-72
2021/06/14 03:19:50;;;;;;;13.70;12.50;;;12.20;70.70;;;;;;5187109;28;20037;-72
2021/06/14 03:22:22;;;;;;;13.73;12.55;;;12.20;70.40;;;;;;5195972;28;20037;-72
2021/06/14 03:24:55;;;;;;;13.40;12.38;;;12.20;70.90;;;;;;5199325;28;20055;-71
2021/06/14 03:27:27;;;;;;;14.70;13.25;;;12.20;70.60;;;;;;5198406;28;20095;-71
2021/06/14 03:29:59;;;;;;;13.40;12.27;;;12.20;71.70;;;;;;5196488;28;20513;-70
2021/06/14 03:32:34;;;;;;;13.80;12.60;;;12.10;71.10;;;;;;5193786;28;20052;-72
2021/06/14 03:35:11;;;;;;;13.77;12.55;;;12.20;71.10;;;;;;5196981;28;20448;-71
2021/06/14 03:37:44;;;;;;;13.45;12.40;;;12.20;72.00;;;;;;5198541;28;20144;-71
2021/06/14 03:40:17;;;;;;;13.07;12.07;;;12.10;72.20;;;;;;5197226;28;20108;-71
2021/06/14 03:42:49;;;;;;;13.70;12.60;;;12.10;71.10;;;;;;5198734;28;20452;-71
2021/06/14 03:45:21;;;;;;;13.70;12.38;;;12.10;71.10;;;;;;5197372;28;20119;-72
2021/06/14 03:47:53;;;;;;;13.25;12.18;;;12.10;71.90;;;;;;5195204;28;20108;-72
2021/06/14 03:50:26;;;;;;;13.23;12.05;;;12.10;71.40;;;;;;5197248;28;20042;-71
2021/06/14 03:52:58;;;;;;;13.55;12.32;;;12.10;71.80;;;;;;5195322;28;20091;-71
2021/06/14 03:55:30;;;;;;;14.07;12.70;;;12.10;71.80;;;;;;5197179;28;20045;-72
2021/06/14 03:58:02;;;;;;;13.38;12.27;;;12.10;71.50;;;;;;5178776;28;20045;-72
2021/06/14 04:00:34;;;;;;;13.50;12.23;;;12.10;72.40;;;;;;5196729;28;20099;-72
2021/06/14 04:03:06;;;;;;;12.85;11.75;;;12.10;72.20;;;;;;5197803;28;20044;-71
2021/06/14 04:05:46;;;;;;;12.85;11.75;;;12.10;72.00;;;;;;5212742;28;20100;-72
2021/06/14 04:08:25;;;;;;;13.38;12.27;;;12.10;72.80;;;;;;5189130;28;20053;-71
2021/06/14 04:10:57;;;;;;;13.55;12.45;;;12.00;71.60;;;;;;5197732;28;20038;-72
2021/06/14 04:13:29;;;;;;;12.82;11.82;;;12.10;71.70;;;;;;5196606;28;20061;-72
2021/06/14 04:16:00;;;;;;;13.55;12.20;;;12.10;72.40;;;;;;5197089;28;20053;-71
2021/06/14 04:18:33;;;;;;;13.45;12.20;;;12.10;71.70;;;;;;5195575;28;20120;-71
2021/06/14 04:21:05;;;;;;;13.10;12.00;;;12.10;72.20;;;;;;5196107;28;20053;-71
2021/06/14 04:23:39;;;;;;;13.43;12.27;;;12.10;72.90;;;;;;5196265;28;20604;-71
2021/06/14 04:26:11;;;;;;;13.98;12.77;;;12.10;73.00;;;;;;5196636;28;20520;-71
2021/06/14 04:28:43;;;;;;;12.77;11.75;;;12.10;72.00;;;;;;5197597;28;20045;-72
2021/06/14 04:31:15;;;;;;;12.75;11.73;;;12.10;71.90;;;;;;5194897;28;20049;-71
2021/06/14 04:33:47;;;;;;;12.60;11.55;;;12.10;71.90;;;;;;5199081;28;20092;-72
2021/06/14 04:36:20;;;;;;;12.70;11.60;;;12.20;72.20;;;;;;5197788;28;20080;-71
2021/06/14 04:38:51;;;;;;;12.80;11.65;;;12.40;71.50;;;;;;5197578;28;20049;-72
2021/06/14 04:41:23;;;;;;;12.93;11.82;;;12.50;72.50;;;;;;5197858;28;20045;-72
2021/06/14 04:43:55;;;;;;;13.23;12.13;;;12.60;72.90;;;;;;5199536;28;20054;-72
2021/06/14 04:46:27;;;;;;;13.40;12.20;;;12.70;73.70;;;;;;5196922;28;20049;-71
2021/06/14 04:49:00;;;;;;;13.48;12.35;;;12.90;72.90;;;;;;5179929;28;20140;-70
2021/06/14 04:51:32;;;;;;;13.38;12.27;;;13.00;73.30;;;;;;5196877;28;20673;-71
2021/06/14 04:54:04;;;;;;;13.90;12.60;;;13.10;73.70;;;;;;5194380;28;20222;-70
2021/06/14 04:56:36;;;;;;;13.50;12.40;;;13.20;73.30;;;;;;5196252;28;20144;-70
2021/06/14 04:59:07;;;;;;;13.45;12.35;;;13.30;73.40;;;;;;5196941;28;20121;-69
2021/06/14 05:01:39;;;;;;;13.38;12.27;;;13.40;72.60;;;;;;5191919;28;20041;-71
2021/06/14 05:04:11;;;;;;;13.35;12.25;;;13.50;72.20;;;;;;5196054;28;20447;-70
2021/06/14 05:06:43;;;;;;;14.00;12.70;;;13.60;71.30;;;;;;5193828;28;20127;-71
2021/06/14 05:09:15;;;;;;;12.85;11.75;;;13.70;71.50;;;;;;5193153;28;20061;-71
2021/06/14 05:11:47;;;;;;;13.77;12.63;;;13.80;71.00;;;;;;5194185;28;20675;-71
2021/06/14 05:14:19;;;;;;;13.70;12.40;;;13.90;70.70;;;;;;5195271;28;20068;-71
2021/06/14 05:16:51;;;;;;;13.95;12.73;;;14.00;70.80;;;;;;5195781;28;20088;-71
2021/06/14 05:19:23;;;;;;;13.45;12.35;;;14.10;70.60;;;;;;5196654;28;20866;-71
2021/06/14 05:21:55;;;;;;;13.55;12.25;;;14.20;69.60;;;;;;5177878;28;20034;-71
2021/06/14 05:24:28;;;;;;;13.68;12.57;;;14.30;69.70;;;;;;5197463;28;20045;-71
2021/06/14 05:27:00;;;;;;;13.95;12.75;;;14.50;69.30;;;;;;5193478;28;20041;-72
2021/06/14 05:29:32;;;;;;;14.60;13.20;;;14.60;69.20;;;;;;5198660;28;20560;-73
2021/06/14 05:32:04;;;;;;;13.90;12.80;;;14.70;68.20;;;;;;5193150;28;20104;-72
2021/06/14 05:34:36;;;;;;;14.30;13.10;;;14.80;68.90;;;;;;5194078;28;20045;-73
2021/06/14 05:37:08;;;;;;;15.07;13.48;;;14.90;70.60;;;;;;5194767;28;20068;-72
2021/06/14 05:39:40;;;;;;;13.93;12.73;;;15.00;69.70;;;;;;5197480;28;20065;-72
2021/06/14 05:42:16;;;;;;;14.60;13.38;;;15.20;68.80;;;;;;5195793;28;20092;-72
2021/06/14 05:44:48;;;;;;;14.38;13.18;;;15.30;68.40;;;;;;5197951;28;20037;-73
2021/06/14 05:47:20;;;;;;;14.77;13.45;;;15.40;67.90;;;;;;5196935;28;20073;-73
2021/06/14 05:49:52;;;;;;;15.30;13.93;;;15.50;67.20;;;;;;5196669;28;20045;-73
2021/06/14 05:52:24;;;;;;;14.98;13.70;;;15.60;69.10;;;;;;5195547;28;20077;-71
2021/06/14 05:54:56;;;;;;;15.10;13.70;;;15.70;67.30;;;;;;5197653;28;20188;-72
2021/06/14 05:57:28;;;;;;;14.43;13.32;;;15.80;67.10;;;;;;5196583;28;20041;-73
2021/06/14 06:00:00;;;;;;;16.75;13.50;;;15.90;67.10;;;;;;5196967;28;20197;-72
2021/06/14 06:02:31;;;;;;;14.43;13.05;;;16.00;66.50;;;;;;5199288;28;20041;-73
2021/06/14 06:05:06;;;;;;;13.93;12.82;;;16.10;66.30;;;;;;5205115;28;20148;-73
2021/06/14 06:07:39;;;;;;;14.77;13.48;;;16.20;66.20;;;;;;5204281;28;20053;-73
2021/06/14 06:10:14;;;;;;;14.75;13.25;;;16.30;65.80;;;;;;5204478;28;20052;-72
2021/06/14 06:12:46;;;;;;;14.27;13.10;;;16.40;64.70;;;;;;5185409;28;21035;-72
2021/06/14 06:15:20;;;;;;;14.20;13.00;;;16.50;65.80;;;;;;5186920;28;20073;-72
2021/06/14 06:17:51;;;;;;;14.02;12.85;;;16.60;65.00;;;;;;5204607;28;20041;-72
2021/06/14 06:20:24;;;;;;;14.70;13.50;;;16.70;65.90;;;;;;5204683;28;20042;-72
2021/06/14 06:22:56;;;;;;;14.10;12.90;;;16.90;65.90;;;;;;5203945;28;20313;-71
2021/06/14 06:25:28;;;;;;;14.65;13.30;;;17.00;63.90;;;;;;5204457;28;20107;-72
2021/06/14 06:28:00;;;;;;;13.93;12.73;;;17.00;64.30;;;;;;5203188;28;20041;-72
2021/06/14 06:30:37;;;;;;;13.75;12.50;;;17.10;61.60;;;;;;5204577;28;20037;-72
2021/06/14 06:33:08;;;;;;;14.60;13.20;;;17.10;62.20;;;;;;5204249;28;20621;-73
2021/06/14 06:35:40;;;;;;;13.73;12.65;;;17.20;61.60;;;;;;5204912;28;20056;-72
2021/06/14 06:38:12;;;;;;;14.50;13.20;;;17.30;63.10;;;;;;5203965;28;20607;-72
2021/06/14 06:40:44;;;;;;;14.07;12.82;;;17.40;64.50;;;;;;5204439;28;20188;-72
2021/06/14 06:43:16;;;;;;;14.40;13.10;;;17.50;63.60;;;;;;5203492;28;20083;-72
2021/06/14 06:45:49;;;;;;;13.65;12.55;;;17.60;62.80;;;;;;5202708;28;20099;-72
2021/06/14 06:48:25;;;;;;;13.38;12.27;;;17.70;63.70;;;;;;5203879;28;20041;-72
2021/06/14 06:50:59;;;;;;;13.98;12.88;;;17.90;63.10;;;;;;5204439;28;20052;-72
2021/06/14 06:53:31;;;;;;;13.50;12.43;;;17.90;61.40;;;;;;5204243;28;20958;-72
2021/06/14 06:56:04;;;;;;;13.93;12.80;;;18.00;63.40;;;;;;5203616;28;20049;-73
2021/06/14 06:58:36;;;;;;;13.35;12.25;;;18.10;61.40;;;;;;5203045;28;20041;-73
2021/06/14 07:01:08;;;;;;;14.85;13.48;;;18.20;61.60;;;;;;5203215;28;20103;-71
2021/06/14 07:03:44;;;;;;;14.55;13.35;;;18.30;62.70;;;;;;5204479;28;20045;-71
2021/06/14 07:06:15;;;;;;;14.90;13.60;;;18.40;63.30;;;;;;5201971;28;20092;-72
2021/06/14 07:08:47;;;;;;;14.73;13.60;;;18.50;62.10;;;;;;5203197;28;20045;-73
2021/06/14 07:11:19;;;;;;;14.50;13.30;;;18.60;61.20;;;;;;5203273;28;20049;-72
2021/06/14 07:13:51;;;;;;;14.95;13.77;;;18.70;60.90;;;;;;5203294;28;20041;-72
2021/06/14 07:16:24;;;;;;;14.10;12.93;;;18.70;60.30;;;;;;5199727;28;20049;-71
2021/06/14 07:18:56;;;;;;;14.38;13.18;;;18.80;60.80;;;;;;5200430;28;20041;-72
2021/06/14 07:21:28;;;;;;;15.10;13.93;;;18.80;59.70;;;;;;5200505;28;20096;-71
2021/06/14 07:24:00;;;;;;;15.48;14.13;;;18.90;61.90;;;;;;5201370;28;20068;-71
2021/06/14 07:26:33;;;;;;;15.15;13.85;;;19.00;58.40;;;;;;5200973;28;20049;-73
2021/06/14 07:29:05;;;;;;;15.05;13.85;;;19.00;59.00;;;;;;5201253;28;20056;-73
2021/06/14 07:31:37;;;;;;;14.18;13.07;;;19.00;60.20;;;;;;5199118;28;20132;-72
2021/06/14 07:34:10;;;;;;;14.48;13.38;;;19.10;60.60;;;;;;5200039;28;20041;-71
2021/06/14 07:36:42;;;;;;;14.15;13.02;;;19.20;60.10;;;;;;5199640;28;20056;-71
2021/06/14 07:39:15;;;;;;;14.57;13.48;;;19.30;60.80;;;;;;5201236;28;20068;-72
2021/06/14 07:41:47;;;;;;;15.27;13.90;;;19.40;60.20;;;;;;5198583;28;20762;-71
2021/06/14 07:44:19;;;;;;;15.55;13.40;;;19.50;60.30;;;;;;5199315;28;20049;-71
2021/06/14 07:46:51;;;;;;;14.38;13.18;;;19.50;60.10;;;;;;5199032;28;20602;-71
2021/06/14 07:49:23;;;;;;;14.45;13.23;;;19.60;61.50;;;;;;5199819;28;20045;-73
2021/06/14 07:51:55;;;;;;;14.65;13.25;;;19.70;60.90;;;;;;5199116;28;20073;-73
2021/06/14 07:54:27;;;;;;;14.80;13.60;;;19.80;60.80;;;;;;5201573;28;20045;-72
2021/06/14 07:56:59;;;;;;;14.02;12.73;;;19.90;60.00;;;;;;5200375;28;20053;-73
2021/06/14 07:59:31;;;;;;;14.40;13.23;;;20.00;59.70;;;;;;5200997;28;20773;-73
2021/06/14 08:02:03;;;;;;;14.07;12.88;;;20.00;58.10;;;;;;5199858;28;20672;-73
2021/06/14 08:04:35;;;;;;;13.65;12.45;;;20.10;58.30;;;;;;5201207;28;20069;-72
2021/06/14 08:07:07;;;;;;;13.55;12.35;;;20.20;58.70;;;;;;5199608;28;20045;-73
2021/06/14 08:09:39;;;;;;;14.32;13.07;;;20.20;58.10;;;;;;5201104;28;20127;-72
2021/06/14 08:12:11;;;;;;;14.10;12.90;;;20.30;58.20;;;;;;5199975;28;20046;-73
2021/06/14 08:14:43;;;;;;;13.98;12.77;;;20.40;57.30;;;;;;5200441;28;20049;-72
2021/06/14 08:17:15;;;;;;;13.63;12.55;;;20.40;57.40;;;;;;5200021;28;20132;-73
2021/06/14 08:20:01;;;;;;;14.10;12.80;;;20.50;56.80;;;;;;5199552;28;20061;-73
2021/06/14 08:25:10;;;;;;;13.85;12.75;;;20.60;55.50;;;;;;5198271;28;20081;-73
2021/06/14 08:27:45;;;;;;;13.63;12.43;;;20.70;58.10;;;;;;5200447;28;20512;-73
2021/06/14 08:30:21;;;;;;;13.50;12.40;;;20.80;58.80;;;;;;5200380;28;20081;-73
2021/06/14 08:32:54;;;;;;;13.68;12.57;;;20.90;58.40;;;;;;5199841;28;20069;-73
2021/06/14 08:35:27;;;;;;;14.02;12.70;;;21.00;57.30;;;;;;5199584;28;20045;-72
2021/06/14 08:38:00;;;;;;;13.82;12.60;;;21.00;57.50;;;;;;5197589;28;20064;-72
2021/06/14 08:40:34;;;;;;;13.75;12.60;;;21.00;58.50;;;;;;5198213;28;20754;-72
2021/06/14 08:43:08;;;;;;;14.07;12.98;;;21.10;58.40;;;;;;5199158;28;20076;-73
2021/06/14 08:45:42;;;;;;;14.25;13.15;;;21.20;58.50;;;;;;5198522;28;20049;-73
2021/06/14 08:48:15;;;;;;;14.00;12.80;;;21.20;57.50;;;;;;5199403;28;20041;-73
2021/06/14 08:50:47;;;;;;;14.82;13.68;;;21.30;58.20;;;;;;5198657;28;20050;-73
2021/06/14 08:53:19;;;;;;;13.95;12.95;;;21.40;56.50;;;;;;5197404;28;20128;-73
2021/06/14 08:55:51;;;;;;;14.02;12.82;;;21.40;57.30;;;;;;5198681;28;20052;-73
2021/06/14 08:58:25;;;;;;;14.52;13.32;;;21.50;57.10;;;;;;5199260;28;20052;-73
2021/06/14 09:00:57;;;;;;;14.32;13.15;;;21.60;57.10;;;;;;5198705;28;20064;-74
2021/06/14 09:03:30;;;;;;;14.45;13.32;;;21.60;56.80;;;;;;5199283;28;20464;-73
2021/06/14 09:06:02;;;;;;;13.80;12.70;;;21.70;56.70;;;;;;5199259;28;20045;-74
2021/06/14 09:08:34;;;;;;;14.48;13.23;;;21.80;53.70;;;;;;5198455;28;20604;-73
2021/06/14 09:11:10;;;;;;;14.07;12.95;;;21.80;56.70;;;;;;5197714;28;20054;-73
2021/06/14 09:13:42;;;;;;;13.55;12.30;;;21.90;54.50;;;;;;5197790;28;20045;-73
2021/06/14 09:16:16;;;;;;;13.90;12.80;;;21.90;53.80;;;;;;5198778;28;20041;-72
2021/06/14 09:18:50;;;;;;;13.73;12.68;;;21.90;54.30;;;;;;5200073;28;20033;-73
2021/06/14 09:21:31;;;;;;;14.30;13.10;;;21.90;55.50;;;;;;5195956;28;20048;-73
2021/06/14 09:24:05;;;;;;;14.07;12.73;;;22.00;55.30;;;;;;5198930;28;20045;-73
2021/06/14 09:26:41;;;;;;;14.20;12.95;;;22.10;53.90;;;;;;5198220;28;20124;-73
2021/06/14 09:29:19;;;;;;;14.50;13.20;;;22.20;54.20;;;;;;5200926;28;20041;-72
2021/06/14 09:31:52;;;;;;;14.23;12.90;;;22.30;55.90;;;;;;5199773;28;20116;-72
2021/06/14 09:34:36;;;;;;;14.27;13.07;;;22.40;55.40;;;;;;5199766;28;20061;-72
2021/06/14 09:37:12;;;;;;;14.38;13.18;;;22.40;53.00;;;;;;5196585;28;20068;-74
2021/06/14 09:39:46;;;;;;;14.05;12.93;;;22.60;54.30;;;;;;5200282;28;20044;-71
2021/06/14 09:42:26;;;;;;;14.48;13.20;;;22.60;54.20;;;;;;5200768;28;20116;-71
2021/06/14 09:45:03;;;;;;;;;;;22.70;53.90;;;;;;5202543;28;20060;-72
2021/06/14 09:47:35;;;;;;;14.73;13.63;;;22.70;53.10;;;;;;5202729;28;19932;-72
2021/06/14 09:50:08;;;;;;;14.25;13.15;;;22.70;51.70;;;;;;5200091;28;20057;-73
2021/06/14 09:52:40;;;;;;;14.25;13.15;;;22.80;53.60;;;;;;5200885;28;20059;-72
2021/06/14 09:55:17;;;;;;;14.18;13.07;;;22.80;52.00;;;;;;5197996;28;20404;-72
2021/06/14 09:57:49;;;;;;;14.25;13.05;;;22.90;52.90;;;;;;5198941;28;20049;-71
2021/06/14 10:00:21;;;;;;;13.68;12.57;;;22.90;52.20;;;;;;5180845;28;20084;-71
2021/06/14 10:02:58;;;;;;;13.85;12.73;;;22.90;50.60;;;;;;5199395;28;20049;-72
2021/06/14 10:05:31;;;;;;;17.13;13.60;;;22.90;52.20;;;;;;5198490;28;20067;-71
2021/06/14 10:08:03;;;;;;;14.93;13.63;;;23.10;51.30;;;;;;5196192;28;20091;-70
2021/06/14 10:10:39;;;;;;;14.63;13.43;;;23.10;52.20;;;;;;5198273;28;20100;-71
2021/06/14 10:13:12;;;;;;;14.18;13.02;;;23.20;52.20;;;;;;5205160;28;20528;-71
2021/06/14 10:15:44;;;;;;;14.10;12.90;;;23.20;50.40;;;;;;5197835;28;20077;-71
2021/06/14 10:18:29;;;;;;;14.50;13.40;;;23.30;50.70;;;;;;5198996;28;20065;-71
2021/06/14 10:21:04;;;;;;;14.02;12.85;;;23.20;49.40;;;;;;5197638;28;20041;-71
2021/06/14 10:23:36;;;;;;;14.20;13.10;;;23.30;50.00;;;;;;5197272;28;20117;-70
2021/06/14 10:26:08;;;;;;;14.23;13.18;;;23.40;51.40;;;;;;5195687;28;20127;-71
2021/06/14 10:28:41;;;;;;;15.00;13.80;;;23.50;52.30;;;;;;5198154;28;20756;-72
2021/06/14 10:31:13;;;;;;;14.27;13.18;;;23.70;50.10;;;;;;5197173;28;20045;-72
2021/06/14 10:33:51;;;;;;;14.25;13.25;;;23.80;50.20;;;;;;5196897;28;20037;-72
2021/06/14 10:36:27;;;;;;;15.23;13.88;;;23.80;48.20;;;;;;5196569;28;20065;-72
2021/06/14 10:39:01;;;;;;;14.43;13.23;;;23.80;49.30;;;;;;5197703;28;20041;-73
2021/06/14 10:41:34;;;;;;;14.65;13.48;;;23.80;45.70;;;;;;5197596;28;20045;-72
2021/06/14 10:44:06;;;;;;;14.57;13.48;;;23.80;48.60;;;;;;5198279;28;20046;-72
2021/06/14 10:46:46;;;;;;;14.38;13.25;;;23.90;48.60;;;;;;5197148;28;20046;-72
2021/06/14 10:49:19;;;;;;;14.07;13.07;;;23.90;47.00;;;;;;5192592;28;20058;-72
2021/06/14 10:52:05;;;;;;;14.80;13.70;;;23.90;45.30;;;;;;5204633;28;20056;-72
2021/06/14 10:54:45;;;;;;;14.10;12.90;;;23.90;45.00;;;;;;5205087;28;20107;-72
2021/06/14 10:57:18;;;;;;;14.63;13.52;;;24.00;45.20;;;;;;5200677;28;20120;-72
2021/06/14 10:59:50;;;;;;;14.90;13.70;;;24.00;46.30;;;;;;5203611;28;20033;-73
2021/06/14 11:02:24;;;;;;;14.68;13.40;;;24.10;44.40;;;;;;5201929;28;20033;-72
2021/06/14 11:05:06;;;;;;;14.32;13.23;;;24.20;45.90;;;;;;5204054;28;20083;-72
2021/06/14 11:07:41;;;;;;;14.05;13.00;;;24.20;42.20;;;;;;5201339;28;20057;-72
2021/06/14 11:10:14;;;;;;;14.45;13.30;;;24.20;42.10;;;;;;5200352;28;20045;-72
2021/06/14 11:12:46;;;;;;;14.32;13.18;;;24.30;45.10;;;;;;5199478;28;20566;-72
2021/06/14 11:15:21;;;;;;;14.02;12.93;;;24.40;43.70;;;;;;5200668;28;20566;-72
2021/06/14 11:17:53;;;;;;;13.75;12.57;;;24.50;42.90;;;;;;5202207;28;20072;-72
2021/06/14 11:20:33;;;;;;;14.25;13.20;;;24.60;43.80;;;;;;5202597;28;20568;-72
2021/06/14 11:23:06;;;;;;;13.95;12.93;;;24.70;43.60;;;;;;5202974;28;20045;-72
2021/06/14 11:25:43;;;;;;;14.30;13.20;;;24.80;45.40;;;;;;5202898;28;20053;-72
2021/06/14 11:28:36;;;;;;;13.85;12.75;;;24.90;44.70;;;;;;5200959;28;20051;-73
2021/06/14 11:31:24;;;;;;;14.38;13.20;;;24.90;43.10;;;;;;5212933;28;20099;-73
2021/06/14 11:34:02;;;;;;;14.30;13.27;;;25.00;43.10;;;;;;5199295;28;20056;-71
2021/06/14 11:36:35;;;;;;;14.25;13.00;;;25.00;43.10;;;;;;5199160;28;20642;-72
2021/06/14 11:39:15;;;;;;;14.35;13.15;;;25.10;39.60;;;;;;5199407;28;20041;-73
2021/06/14 11:41:47;;;;;;;14.75;13.65;;;25.10;41.00;;;;;;5198062;28;20464;-71
2021/06/14 11:44:19;;;;;;;15.02;13.93;;;25.00;39.40;;;;;;5199397;28;20061;-72
2021/06/14 11:47:10;;;;;;;15.43;14.32;;;25.10;39.20;;;;;;5199362;28;20053;-72
2021/06/14 11:49:43;;;;;;;14.75;13.63;;;25.10;40.20;;;;;;5197933;28;20103;-74
2021/06/14 11:52:22;;;;;;;15.50;14.20;;;25.20;38.90;;;;;;5199589;28;20081;-73
2021/06/14 11:54:59;;;;;;;14.95;13.75;;;25.20;39.10;;;;;;5200722;28;20099;-72
2021/06/14 11:57:34;;;;;;;15.23;14.13;;;25.30;41.30;;;;;;5200167;28;20057;-73
2021/06/14 12:00:27;;;;;;;14.85;13.75;;;25.30;40.80;;;;;;5198113;28;20041;-72
2021/06/14 12:03:00;;;;;;;14.82;13.63;;;25.40;40.60;;;;;;5200656;28;20053;-73
2021/06/14 12:05:34;;;;;;;15.52;14.07;;;25.50;41.00;;;;;;5198777;28;20456;-72
2021/06/14 12:08:09;;;;;;;15.32;14.02;;;25.60;40.20;;;;;;5200730;28;20166;-72
2021/06/14 12:10:41;;;;;;;15.20;14.00;;;25.70;39.90;;;;;;5200758;28;20064;-74
2021/06/14 12:13:29;;;;;;;15.25;14.15;;;25.80;40.80;;;;;;5183981;28;20060;-73
2021/06/14 12:16:01;;;;;;;15.40;14.30;;;25.80;40.90;;;;;;5199890;28;20768;-73
2021/06/14 12:18:33;;;;;;;15.15;14.05;;;26.00;39.70;;;;;;5201183;28;20151;-72
2021/06/14 12:21:08;;;;;;;14.90;13.80;;;26.00;39.40;;;;;;5201062;28;20037;-73
2021/06/14 12:23:42;;;;;;;14.77;13.65;;;26.00;39.10;;;;;;5198881;28;20033;-73
2021/06/14 12:26:16;;;;;;;15.02;13.73;;;26.00;38.00;;;;;;5198931;28;20587;-72
2021/06/14 12:28:48;;;;;;;15.18;13.93;;;26.10;39.70;;;;;;5200285;28;20048;-73
2021/06/14 12:31:20;;;;;;;15.43;14.23;;;26.20;37.20;;;;;;5199334;28;20088;-72
2021/06/14 12:33:52;;;;;;;15.55;14.25;;;26.20;42.40;;;;;;5200604;28;20041;-73
2021/06/14 12:36:25;;;;;;;15.15;13.88;;;26.30;41.40;;;;;;5199824;28;20041;-73
2021/06/14 12:38:57;;;;;;;15.77;14.68;;;26.40;37.40;;;;;;5193942;28;21309;-71
2021/06/14 12:41:29;;;;;;;15.27;14.18;;;26.50;37.70;;;;;;5197938;28;20045;-72
2021/06/14 12:44:11;;;;;;;15.73;14.52;;;26.40;35.40;;;;;;5200107;28;20069;-72
2021/06/14 12:46:43;;;;;;;16.13;14.95;;;26.50;36.80;;;;;;5199231;28;20137;-72
2021/06/14 12:49:29;;;;;;;16.10;15.00;;;26.50;35.20;;;;;;5198270;28;20115;-69
2021/06/14 12:52:02;;;;;;;16.52;15.23;;;26.50;36.30;;;;;;5195159;28;20099;-70
2021/06/14 12:54:36;;;;;;;16.35;15.05;;;26.60;36.40;;;;;;5199233;28;20061;-70
2021/06/14 12:57:08;;;;;;;16.27;15.07;;;26.70;36.30;;;;;;5199786;28;20041;-70
2021/06/14 12:59:41;;;;;;;16.65;15.45;;;26.70;35.70;;;;;;5197894;28;20049;-70
2021/06/14 13:02:15;;;;;;;17.27;15.98;;;26.80;34.40;;;;;;5198342;28;20112;-72
2021/06/14 13:04:50;;;;;;;16.20;15.10;;;26.80;36.60;;;;;;5197093;28;20108;-71
2021/06/14 13:07:22;;;;;;;16.40;15.20;;;26.90;37.80;;;;;;5194404;28;20172;-72